createdAt,value
2023-04-15T00:02:18.382Z,89.74
2023-04-15T00:05:20.961Z,90.19
2023-04-15T00:08:23.108Z,90.07
2023-04-15T00:11:25.320Z,90.17
2023-04-15T00:14:28.170Z,90.28
2023-04-15T00:17:30.409Z,90.12
2023-04-15T00:20:32.469Z,90.57
2023-04-15T00:23:36.461Z,90.32
2023-04-15T00:26:38.586Z,90.83
2023-04-15T00:29:40.749Z,90.97
2023-04-15T00:32:42.872Z,90.98
2023-04-15T00:35:45.049Z,90.65
2023-04-15T00:38:47.267Z,90.24
2023-04-15T00:41:49.421Z,90.33
2023-04-15T00:44:51.754Z,89.86
2023-04-15T00:47:54.010Z,89.96
2023-04-15T00:50:56.228Z,90.11
2023-04-15T00:53:58.325Z,89.85
2023-04-15T00:57:00.779Z,90.46
2023-04-15T01:00:04.702Z,90.20
2023-04-15T01:03:07.009Z,90.25
2023-04-15T01:06:09.259Z,90.52
2023-04-15T01:09:11.925Z,90.34
2023-04-15T01:12:15.536Z,90.54
2023-04-15T01:15:17.646Z,89.86
2023-04-15T01:18:20.001Z,89.79
2023-04-15T01:21:22.315Z,89.72
2023-04-15T01:24:26.172Z,89.46
2023-04-15T01:27:28.593Z,90.05
2023-04-15T01:30:33.964Z,90.13
2023-04-15T01:33:37.124Z,89.95
2023-04-15T01:36:39.606Z,90.35
2023-04-15T01:39:41.727Z,90.16
2023-04-15T01:42:43.909Z,89.40
2023-04-15T01:45:46.358Z,89.63
2023-04-15T01:48:48.832Z,90.04
2023-04-15T01:51:50.920Z,89.67
2023-04-15T01:54:53.393Z,89.93
2023-04-15T01:57:55.530Z,89.69
2023-04-15T02:00:58.578Z,90.77
2023-04-15T02:04:01.417Z,90.17
2023-04-15T02:07:03.704Z,90.72
2023-04-15T02:10:06.403Z,90.79
2023-04-15T02:13:11.331Z,90.80
2023-04-15T02:16:17.984Z,90.85
2023-04-15T02:19:20.204Z,90.41
2023-04-15T02:22:22.854Z,90.41
2023-04-15T02:25:25.151Z,90.60
2023-04-15T02:28:28.016Z,90.87
2023-04-15T02:31:30.509Z,90.64
2023-04-15T02:34:34.663Z,90.79
2023-04-15T02:37:40.824Z,90.02
2023-04-15T02:40:44.954Z,90.48
2023-04-15T02:43:48.281Z,90.55
2023-04-15T02:46:52.981Z,91.02
2023-04-15T02:49:58.978Z,91.35
2023-04-15T02:53:02.887Z,91.18
2023-04-15T02:56:07.065Z,90.59
2023-04-15T02:59:09.626Z,90.61
2023-04-15T03:02:12.111Z,90.78
2023-04-15T03:05:14.946Z,91.22
2023-04-15T03:08:23.530Z,91.16
2023-04-15T03:11:27.456Z,91.01
2023-04-15T03:14:30.042Z,91.02
2023-04-15T03:17:32.598Z,91.00
2023-04-15T03:20:36.652Z,90.90
2023-04-15T03:23:38.954Z,91.33
2023-04-15T03:26:41.630Z,91.23
2023-04-15T03:29:47.730Z,90.88
2023-04-15T03:32:52.425Z,91.18
2023-04-15T03:35:55.439Z,91.07
2023-04-15T03:38:58.418Z,90.98
2023-04-15T03:42:01.858Z,90.99
2023-04-15T03:45:04.395Z,91.01
2023-04-15T03:48:16.461Z,91.09
2023-04-15T03:51:19.786Z,91.13
2023-04-15T03:54:22.231Z,91.07
2023-04-15T03:57:24.472Z,90.87
2023-04-15T04:00:26.935Z,91.53
2023-04-15T04:03:29.379Z,91.57
2023-04-15T04:06:31.754Z,91.19
2023-04-15T04:09:34.707Z,91.26
2023-04-15T04:12:36.855Z,91.66
2023-04-15T04:15:39.308Z,91.67
2023-04-15T04:18:41.782Z,92.45
2023-04-15T04:21:44.048Z,91.86
2023-04-15T04:24:46.680Z,91.51
2023-04-15T04:27:48.869Z,91.45
2023-04-15T04:30:51.544Z,91.20
2023-04-15T04:33:54.004Z,91.27
2023-04-15T04:36:57.006Z,91.64
2023-04-15T04:39:59.491Z,91.71
2023-04-15T04:43:02.138Z,91.90
2023-04-15T04:46:04.583Z,91.53
2023-04-15T04:49:07.134Z,91.74
2023-04-15T04:52:10.485Z,91.72
2023-04-15T04:55:12.873Z,91.60
2023-04-15T04:58:15.269Z,90.74
2023-04-15T05:01:17.585Z,90.58
2023-04-15T05:04:20.011Z,90.93
2023-04-15T05:07:22.446Z,91.72
2023-04-15T05:10:24.916Z,91.58
2023-04-15T05:13:27.221Z,91.50
2023-04-15T05:16:29.736Z,90.51
2023-04-15T05:19:32.288Z,90.49
2023-04-15T05:22:34.552Z,91.11
2023-04-15T05:25:36.984Z,90.29
2023-04-15T05:28:39.153Z,90.88
2023-04-15T05:31:41.915Z,90.58
2023-04-15T05:34:44.634Z,90.50
2023-04-15T05:37:47.337Z,90.88
2023-04-15T05:40:49.639Z,90.86
2023-04-15T05:43:52.304Z,91.29
2023-04-15T05:46:54.592Z,90.59
2023-04-15T05:49:57.235Z,90.80
2023-04-15T05:52:59.353Z,90.87
2023-04-15T05:56:01.748Z,90.81
2023-04-15T05:59:04.019Z,90.97
2023-04-15T06:02:06.396Z,90.53
2023-04-15T06:05:10.046Z,89.64
2023-04-15T06:08:12.949Z,89.13
2023-04-15T06:11:15.341Z,88.38
2023-04-15T06:14:17.548Z,88.68
2023-04-15T06:17:20.053Z,88.93
2023-04-15T06:20:22.488Z,89.54
2023-04-15T06:23:26.331Z,88.97
2023-04-15T06:26:29.195Z,85.88
2023-04-15T06:29:31.253Z,85.28
2023-04-15T06:32:33.546Z,86.45
2023-04-15T06:35:35.652Z,85.50
2023-04-15T06:38:37.726Z,85.65
2023-04-15T06:41:39.815Z,84.43
2023-04-15T06:44:42.171Z,84.38
2023-04-15T06:47:44.236Z,84.73
2023-04-15T06:50:46.394Z,83.21
2023-04-15T06:53:48.547Z,83.73
2023-04-15T06:56:51.599Z,84.25
2023-04-15T06:59:54.718Z,85.31
2023-04-15T07:02:57.119Z,84.37
2023-04-15T07:05:59.732Z,80.56
2023-04-15T07:09:03.267Z,81.13
2023-04-15T07:12:05.612Z,80.85
2023-04-15T07:15:07.912Z,81.32
2023-04-15T07:18:09.990Z,79.21
2023-04-15T07:21:12.649Z,80.54
2023-04-15T07:24:18.145Z,78.04
2023-04-15T07:27:20.274Z,76.55
2023-04-15T07:30:22.364Z,76.17
2023-04-15T07:33:24.420Z,77.99
2023-04-15T07:36:26.438Z,80.51
2023-04-15T07:39:29.268Z,81.72
2023-04-15T07:42:31.302Z,78.90
2023-04-15T07:45:33.765Z,71.60
2023-04-15T07:48:37.049Z,65.86
2023-04-15T07:51:39.633Z,70.18
2023-04-15T07:54:41.775Z,66.80
2023-04-15T07:57:43.826Z,69.12
2023-04-15T08:00:46.055Z,71.59
2023-04-15T08:03:48.672Z,72.51
2023-04-15T08:06:50.964Z,69.48
2023-04-15T08:09:53.075Z,69.68
2023-04-15T08:12:55.159Z,71.36
2023-04-15T08:16:16.195Z,67.94
2023-04-15T08:19:18.397Z,60.70
2023-04-15T08:22:21.351Z,58.33
2023-04-15T08:25:24.440Z,62.08
2023-04-15T08:28:26.526Z,55.09
2023-04-15T08:31:29.893Z,57.28
2023-04-15T08:34:32.130Z,61.45
2023-04-15T08:37:34.223Z,66.82
2023-04-15T08:40:41.437Z,68.53
2023-04-15T08:43:49.259Z,67.81
2023-04-15T08:46:52.529Z,64.95
2023-04-15T08:49:55.786Z,67.55
2023-04-15T08:52:59.337Z,64.57
2023-04-15T08:56:03.432Z,66.44
2023-04-15T08:59:06.382Z,62.93
2023-04-15T09:02:09.388Z,60.26
2023-04-15T09:05:11.483Z,56.22
2023-04-15T09:08:13.785Z,54.82
2023-04-15T09:11:19.921Z,54.59
2023-04-15T09:14:22.873Z,60.94
2023-04-15T09:17:26.709Z,60.35
2023-04-15T09:20:28.863Z,63.34
2023-04-15T09:23:31.200Z,64.99
2023-04-15T09:26:37.297Z,62.28
2023-04-15T09:29:41.729Z,61.95
2023-04-15T09:32:58.150Z,64.29
2023-04-15T09:36:01.585Z,65.19
2023-04-15T09:39:03.978Z,68.97
2023-04-15T09:42:07.125Z,67.79
2023-04-15T09:45:12.201Z,68.71
2023-04-15T09:48:18.543Z,67.54
2023-04-15T09:51:33.332Z,65.35
2023-04-15T09:54:36.644Z,64.24
2023-04-15T09:57:40.164Z,60.75
2023-04-15T10:00:42.244Z,62.43
2023-04-15T10:03:45.218Z,53.28
2023-04-15T10:06:47.514Z,52.88
2023-04-15T10:09:49.932Z,48.12
2023-04-15T10:12:52.630Z,48.39
2023-04-15T10:15:58.657Z,51.06
2023-04-15T10:19:01.996Z,55.39
2023-04-15T10:22:04.502Z,58.98
2023-04-15T10:25:07.603Z,60.48
2023-04-15T10:28:10.455Z,60.00
2023-04-15T10:31:14.218Z,64.01
2023-04-15T10:34:17.164Z,61.20
2023-04-15T10:37:23.641Z,62.38
2023-04-15T10:40:27.870Z,61.01
2023-04-15T10:43:30.052Z,68.93
2023-04-15T10:46:43.125Z,71.11
2023-04-15T10:49:46.610Z,64.65
2023-04-15T10:52:51.837Z,60.91
2023-04-15T10:55:54.277Z,60.91
2023-04-15T10:58:58.699Z,67.04
2023-04-15T11:02:02.186Z,67.19
2023-04-15T11:05:04.518Z,61.96
2023-04-15T11:08:06.969Z,65.12
2023-04-15T11:11:09.378Z,65.31
2023-04-15T11:14:15.634Z,64.82
2023-04-15T11:17:27.797Z,64.02
2023-04-15T11:20:30.258Z,63.38
2023-04-15T11:23:37.793Z,65.70
2023-04-15T11:26:40.249Z,65.89
2023-04-15T11:29:42.457Z,65.74
2023-04-15T11:32:44.668Z,60.94
2023-04-15T11:35:47.225Z,62.86
2023-04-15T11:38:49.344Z,62.90
2023-04-15T11:41:51.402Z,60.23
2023-04-15T11:45:06.627Z,60.92
2023-04-15T11:48:09.491Z,60.51
2023-04-15T11:51:12.150Z,59.51
2023-04-15T11:54:18.804Z,60.06
2023-04-15T11:57:20.950Z,57.47
2023-04-15T12:00:23.147Z,58.74
2023-04-15T12:03:25.473Z,60.87
2023-04-15T12:06:33.632Z,60.60
2023-04-15T12:09:39.877Z,60.77
2023-04-15T12:12:42.283Z,60.30
2023-04-15T12:15:44.799Z,62.37
2023-04-15T12:18:47.668Z,61.56
2023-04-15T12:21:49.800Z,60.73
2023-04-15T12:24:57.153Z,61.85
2023-04-15T12:27:59.617Z,58.57
2023-04-15T12:31:06.909Z,59.96
2023-04-15T12:34:09.288Z,57.79
2023-04-15T12:37:13.188Z,57.15
2023-04-15T12:40:15.433Z,56.24
2023-04-15T12:43:17.513Z,57.78
2023-04-15T12:46:20.373Z,56.28
2023-04-15T12:49:23.076Z,56.25
2023-04-15T12:52:25.143Z,55.62
2023-04-15T12:55:27.757Z,55.31
2023-04-15T12:58:29.858Z,56.56
2023-04-15T13:01:32.095Z,57.54
2023-04-15T13:04:34.374Z,59.02
2023-04-15T13:07:36.507Z,58.74
2023-04-15T13:10:38.602Z,59.17
2023-04-15T13:13:40.691Z,59.46
2023-04-15T13:16:42.802Z,60.18
2023-04-15T13:19:44.907Z,62.42
2023-04-15T13:22:47.018Z,61.00
2023-04-15T13:25:49.134Z,61.44
2023-04-15T13:28:51.215Z,61.89
2023-04-15T13:31:53.462Z,62.74
2023-04-15T13:34:56.259Z,61.47
2023-04-15T13:37:58.370Z,62.21
2023-04-15T13:41:00.654Z,63.54
2023-04-15T13:44:03.102Z,63.73
2023-04-15T13:47:05.442Z,61.30
2023-04-15T13:50:07.779Z,61.47
2023-04-15T13:53:09.876Z,60.60
2023-04-15T13:56:12.020Z,59.24
2023-04-15T13:59:14.055Z,60.08
2023-04-15T14:02:16.331Z,59.95
2023-04-15T14:05:18.543Z,59.13
2023-04-15T14:08:20.708Z,59.46
2023-04-15T14:11:22.799Z,59.09
2023-04-15T14:14:24.987Z,58.03
2023-04-15T14:17:27.113Z,60.85
2023-04-15T14:20:29.214Z,58.99
2023-04-15T14:23:31.246Z,58.86
2023-04-15T14:26:33.407Z,59.64
2023-04-15T14:29:35.518Z,61.10
2023-04-15T14:32:37.664Z,59.83
2023-04-15T14:35:39.778Z,63.66
2023-04-15T14:38:41.867Z,61.64
2023-04-15T14:41:43.939Z,61.69
2023-04-15T14:44:46.381Z,63.38
2023-04-15T14:47:48.690Z,62.57
2023-04-15T14:50:50.950Z,64.89
2023-04-15T14:53:53.013Z,65.47
2023-04-15T14:56:55.929Z,64.87
2023-04-15T14:59:59.317Z,65.21
2023-04-15T15:03:02.310Z,64.88
2023-04-15T15:06:04.474Z,65.83
2023-04-15T15:09:06.770Z,65.62
2023-04-15T15:12:09.165Z,66.37
2023-04-15T15:15:28.245Z,66.85
2023-04-15T15:18:31.428Z,65.40
2023-04-15T15:21:33.662Z,66.53
2023-04-15T15:24:35.869Z,65.47
2023-04-15T15:27:38.443Z,67.24
2023-04-15T15:30:40.707Z,64.83
2023-04-15T15:33:42.813Z,65.46
2023-04-15T15:36:44.845Z,65.90
2023-04-15T15:39:46.951Z,64.88
2023-04-15T15:42:50.896Z,67.23
2023-04-15T15:45:55.538Z,66.60
2023-04-15T15:48:57.914Z,65.87
2023-04-15T15:51:59.974Z,66.87
2023-04-15T15:55:02.184Z,67.51
2023-04-15T15:58:04.258Z,67.50
2023-04-15T16:01:06.369Z,66.81
2023-04-15T16:04:08.855Z,66.34
2023-04-15T16:07:11.794Z,65.35
2023-04-15T16:10:14.222Z,64.70
2023-04-15T16:13:16.353Z,65.55
2023-04-15T16:16:18.420Z,66.44
2023-04-15T16:19:20.997Z,64.36
2023-04-15T16:22:23.526Z,65.02
2023-04-15T16:25:25.746Z,64.15
2023-04-15T16:28:27.847Z,63.91
2023-04-15T16:31:30.510Z,65.42
2023-04-15T16:34:32.574Z,66.69
2023-04-15T16:37:36.099Z,65.47
2023-04-15T16:40:38.301Z,66.48
2023-04-15T16:43:40.534Z,66.15
2023-04-15T16:46:42.589Z,67.24
2023-04-15T16:49:44.675Z,67.61
2023-04-15T16:52:46.775Z,67.94
2023-04-15T16:55:48.843Z,68.19
2023-04-15T16:58:50.983Z,67.79
2023-04-15T17:01:54.003Z,68.34
2023-04-15T17:04:56.155Z,68.53
2023-04-15T17:07:58.376Z,69.60
2023-04-15T17:11:00.496Z,69.51
2023-04-15T17:14:02.982Z,71.35
2023-04-15T17:17:06.121Z,69.90
2023-04-15T17:20:08.382Z,70.68
2023-04-15T17:23:10.544Z,70.47
2023-04-15T17:26:12.610Z,70.81
2023-04-15T17:29:14.717Z,72.85
2023-04-15T17:32:16.850Z,73.96
2023-04-15T17:35:18.947Z,73.31
2023-04-15T17:38:21.093Z,73.38
2023-04-15T17:41:23.326Z,71.94
2023-04-15T17:44:25.492Z,72.37
2023-04-15T17:47:27.809Z,72.72
2023-04-15T17:50:29.980Z,72.81
2023-04-15T17:53:32.068Z,72.61
2023-04-15T17:56:34.525Z,75.26
2023-04-15T17:59:36.644Z,73.40
2023-04-15T18:02:39.029Z,76.32
2023-04-15T18:05:42.616Z,74.93
2023-04-15T18:08:44.992Z,73.80
2023-04-15T18:11:48.453Z,75.26
2023-04-15T18:14:50.584Z,74.81
2023-04-15T18:17:52.923Z,75.27
2023-04-15T18:20:55.072Z,75.46
2023-04-15T18:23:57.147Z,74.92
2023-04-15T18:26:59.253Z,76.04
2023-04-15T18:30:01.378Z,77.24
2023-04-15T18:33:03.692Z,76.15
2023-04-15T18:36:05.987Z,76.51
2023-04-15T18:39:08.501Z,77.80
2023-04-15T18:42:10.653Z,78.37
2023-04-15T18:45:12.761Z,78.67
2023-04-15T18:48:15.979Z,78.76
2023-04-15T18:51:18.142Z,78.15
2023-04-15T18:54:20.245Z,79.65
2023-04-15T18:57:26.247Z,79.50
2023-04-15T19:00:36.430Z,79.20
2023-04-15T19:03:38.591Z,80.19
2023-04-15T19:06:40.835Z,79.63
2023-04-15T19:09:43.090Z,80.69
2023-04-15T19:12:45.189Z,79.66
2023-04-15T19:15:47.296Z,79.21
2023-04-15T19:18:49.359Z,79.91
2023-04-15T19:21:52.694Z,79.45
2023-04-15T19:24:54.801Z,79.38
2023-04-15T19:27:58.907Z,79.83
2023-04-15T19:31:02.128Z,79.15
2023-04-15T19:34:04.326Z,79.87
2023-04-15T19:37:06.460Z,80.07
2023-04-15T19:40:09.651Z,80.02
2023-04-15T19:43:11.748Z,80.31
2023-04-15T19:46:13.937Z,80.86
2023-04-15T19:49:16.727Z,81.16
2023-04-15T19:52:18.799Z,81.08
2023-04-15T19:55:20.955Z,81.88
2023-04-15T19:58:23.029Z,83.38
2023-04-15T20:01:25.321Z,83.94
2023-04-15T20:04:27.741Z,83.67
2023-04-15T20:07:29.938Z,83.11
2023-04-15T20:10:32.010Z,82.50
2023-04-15T20:13:34.161Z,82.52
2023-04-15T20:16:38.347Z,82.68
2023-04-15T20:19:40.419Z,81.65
2023-04-15T20:22:42.507Z,82.18
2023-04-15T20:25:44.652Z,82.50
2023-04-15T20:28:46.701Z,83.19
2023-04-15T20:31:48.850Z,82.82
2023-04-15T20:34:51.193Z,82.91
2023-04-15T20:37:53.411Z,84.26
2023-04-15T20:40:55.786Z,84.29
2023-04-15T20:43:57.983Z,84.72
2023-04-15T20:47:00.075Z,83.26
2023-04-15T20:50:02.370Z,83.27
2023-04-15T20:53:05.046Z,83.99
2023-04-15T20:56:07.316Z,83.98
2023-04-15T20:59:09.395Z,82.90
2023-04-15T21:02:11.681Z,83.49
2023-04-15T21:05:13.877Z,83.69
2023-04-15T21:08:16.068Z,83.60
2023-04-15T21:11:33.197Z,83.38
2023-04-15T21:14:40.570Z,83.79
2023-04-15T21:17:42.722Z,83.26
2023-04-15T21:20:44.822Z,84.07
2023-04-15T21:23:46.959Z,84.19
2023-04-15T21:26:49.327Z,84.63
2023-04-15T21:29:51.509Z,83.80
2023-04-15T21:32:53.584Z,83.87
2023-04-15T21:35:55.847Z,83.50
2023-04-15T21:38:57.996Z,83.11
2023-04-15T21:42:00.231Z,83.00
2023-04-15T21:45:02.559Z,82.77
2023-04-15T21:48:08.256Z,83.21
2023-04-15T21:51:10.771Z,84.19
2023-04-15T21:54:12.924Z,84.26
2023-04-15T21:57:15.340Z,84.36
2023-04-15T22:00:17.551Z,84.27
2023-04-15T22:03:19.793Z,84.05
2023-04-15T22:06:22.069Z,84.02
2023-04-15T22:09:24.111Z,84.38
2023-04-15T22:12:26.341Z,84.54
2023-04-15T22:15:28.536Z,84.90
2023-04-15T22:18:30.611Z,85.18
2023-04-15T22:21:32.645Z,84.62
2023-04-15T22:24:40.421Z,84.66
2023-04-15T22:27:42.756Z,85.28
2023-04-15T22:30:44.824Z,85.38
2023-04-15T22:33:46.866Z,84.67
2023-04-15T22:36:49.370Z,84.50
2023-04-15T22:39:51.992Z,85.22
2023-04-15T22:42:54.052Z,85.71
2023-04-15T22:45:56.738Z,86.24
2023-04-15T22:48:59.380Z,87.24
2023-04-15T22:52:01.563Z,87.15
2023-04-15T22:55:04.116Z,87.10
2023-04-15T22:58:06.288Z,87.33
2023-04-15T23:01:08.384Z,86.84
2023-04-15T23:04:24.850Z,86.37
2023-04-15T23:07:29.017Z,87.04
2023-04-15T23:10:31.151Z,86.53
2023-04-15T23:13:36.185Z,86.38
2023-04-15T23:16:38.250Z,86.61
2023-04-15T23:19:40.631Z,86.81
2023-04-15T23:22:43.271Z,87.20
2023-04-15T23:25:45.386Z,87.64
2023-04-15T23:28:47.439Z,87.64
2023-04-15T23:31:49.565Z,87.16
2023-04-15T23:34:52.291Z,87.08
2023-04-15T23:37:54.457Z,86.91
2023-04-15T23:40:56.571Z,87.16
2023-04-15T23:43:58.728Z,87.66
2023-04-15T23:47:00.895Z,87.95
2023-04-15T23:50:03.622Z,87.60
2023-04-15T23:53:05.701Z,88.50
2023-04-15T23:56:07.882Z,87.90
2023-04-15T23:59:10.164Z,87.82
